Nearby METAR Reports

 

KMQS - Coatesville, Pennsylvania, USA
Distance from station: ENE 6mi, 10km
Updated: Mon, 25-Mar-2019 11:55am EDT
Overcast
Overcast
 Wind from NE
Wind: NE 3 mph , 6 km/h
Temperature: 52°F , 11°C
Dew Point: 32°F , 0°C
Humidity: 47%
Barometer: 30.06 inHg , 1017.9 hPa
Clouds: Overcast
Visibility: 10 miles , 16 km
Cloud details: Few Clouds 4700 ft
Mostly cloudy 7000 ft
Overcast 8000 ft
2019/03/25 15:55 KMQS 251555Z AUTO 04003KT 10SM FEW047 BKN070 OVC080 11/00 A3006 RMK AO2
KLNS - Lancaster, Pennsylvania, USA
Distance from station: NW 21mi, 33km
Updated: Mon, 25-Mar-2019 11:53am EDT
Overcast
Overcast
 Wind from NE
Wind: NE 8 mph , 13 km/h
Temperature: 52°F , 11°C
Dew Point: 36°F , 2°C
Humidity: 54%
Barometer: 30.06 inHg , 1017.9 hPa
Clouds: Overcast
Visibility: 10 miles , 16 km
Cloud details: Overcast 5000 ft
2019/03/25 15:53 KLNS 251553Z 04007KT 10SM OVC050 11/02 A3006 RMK AO2 SLP180 T01110017
 
KILG - Wilmington, Delaware, USA
Distance from station: SE 28mi, 45km
Updated: Mon, 25-Mar-2019 11:51am EDT
Mostly cloudy
Mostly cloudy
 Wind from ENE
Wind: ENE 9 mph , 15 km/h
Temperature: 59°F , 15°C
Dew Point: 34°F , 1°C
Humidity: 39%
Barometer: 30.05 inHg , 1017.6 hPa
Clouds: Mostly cloudy
Visibility: 10 miles , 16 km
Cloud details: Mostly cloudy 9000 ft
2019/03/25 15:51 KILG 251551Z 07008KT 10SM BKN090 15/01 A3005 RMK AO2 SLP175 T01500011
KRDG - Reading, Pennsylvania, USA
Distance from station: N 29mi, 47km
Updated: Mon, 25-Mar-2019 10:54am EDT
NOT Current
Overcast
Overcast
 Wind from NE
Wind: NE 12 mph , 19 km/h
Temperature: 48°F , 9°C
Wind Chill: 43°F , 6°C
Dew Point: 30°F , -1°C
Humidity: 50%
Barometer: 30.05 inHg , 1017.6 hPa
Clouds: Overcast
Visibility: 10 miles , 16 km
Cloud details: Overcast 5000 ft
2019/03/25 14:54 KRDG 251454Z 04010KT 10SM OVC050 09/M01 A3005 RMK AO2 SLP187 T00941006 $
 
KPTW - Pottstown, Pennsylvania, USA
Distance from station: NE 30mi, 48km
Updated: Mon, 25-Mar-2019 11:54am EDT
Overcast
Overcast
 Wind from N
Wind: N 9 mph , 15 km/h
Temperature: 48°F , 9°C
Wind Chill: 44°F , 7°C
Dew Point: 28°F , -2°C
Humidity: 46%
Barometer: 30.09 inHg , 1019 hPa
Clouds: Overcast
Visibility: 9 miles , 14 km
Cloud details: Overcast 5500 ft
2019/03/25 15:54 KPTW 251554Z AUTO 01008KT 9SM OVC055 09/M02 A3009 RMK AO2 SLP187 T00891022